Orfordville, Wisconsin
Current Conditions -  °F | °C
As of 9:45 AM on Sunday 25 Jan 2015 (Local Time) from KJVL Reporting Station
Light Snow Light Snow  
Wind Chill: 17°   Ceiling: 1300
Heat Index: 28°   Visibility: 3mi
Dew Point: 25°   Wind: 14mph
Humidity: 86%   Direction: 40°NE
Pressure: 29.84"   Gusts: 23mph
Location:  42.63°N, 89.25°W
Report Text: KJVL 251545Z 04012G20KT 3SM -SN BKN013 OVC036 M02/M04 A2984
Loading
Personal Weather Stations






























Interactive Weather Map New forecast layout! Learn more

10-Day Weather Forecast

Advertisements
Track Severe Weather on mobile